sensor_id;sensor_type;location;lat;lon;timestamp;pressure;altitude;pressure_sealevel;temperature
67758;BMP180;54562;47.620;18.786;2023-03-21T00:02:43;98527.40;;;8.50
67758;BMP180;54562;47.620;18.786;2023-03-21T00:06:03;98531.00;;;8.50
67758;BMP180;54562;47.620;18.786;2023-03-21T00:09:12;98529.00;;;8.40
67758;BMP180;54562;47.620;18.786;2023-03-21T00:12:20;98527.40;;;8.40
67758;BMP180;54562;47.620;18.786;2023-03-21T00:15:31;98532.00;;;8.30
67758;BMP180;54562;47.620;18.786;2023-03-21T00:18:57;98528.60;;;8.30
67758;BMP180;54562;47.620;18.786;2023-03-21T00:22:08;98525.60;;;8.20
67758;BMP180;54562;47.620;18.786;2023-03-21T00:25:25;98523.20;;;8.20
67758;BMP180;54562;47.620;18.786;2023-03-21T00:28:42;98518.60;;;8.10
67758;BMP180;54562;47.620;18.786;2023-03-21T00:31:50;98516.80;;;8.08
67758;BMP180;54562;47.620;18.786;2023-03-21T00:35:00;98514.80;;;8.00
67758;BMP180;54562;47.620;18.786;2023-03-21T00:38:37;98509.60;;;8.00
67758;BMP180;54562;47.620;18.786;2023-03-21T00:41:45;98499.60;;;8.00
67758;BMP180;54562;47.620;18.786;2023-03-21T00:44:56;98493.20;;;8.00
67758;BMP180;54562;47.620;18.786;2023-03-21T00:48:05;98492.80;;;8.04
67758;BMP180;54562;47.620;18.786;2023-03-21T00:51:21;98493.80;;;8.10
67758;BMP180;54562;47.620;18.786;2023-03-21T00:54:33;98498.00;;;8.10
67758;BMP180;54562;47.620;18.786;2023-03-21T00:57:41;98490.40;;;8.10
67758;BMP180;54562;47.620;18.786;2023-03-21T01:00:55;98488.00;;;8.00
67758;BMP180;54562;47.620;18.786;2023-03-21T01:04:04;98489.20;;;8.00
67758;BMP180;54562;47.620;18.786;2023-03-21T01:07:24;98488.60;;;8.00
67758;BMP180;54562;47.620;18.786;2023-03-21T01:10:33;98485.80;;;8.00
67758;BMP180;54562;47.620;18.786;2023-03-21T01:13:45;98485.80;;;8.00
67758;BMP180;54562;47.620;18.786;2023-03-21T01:17:04;98485.40;;;8.00
67758;BMP180;54562;47.620;18.786;2023-03-21T01:23:19;98485.00;;;8.00
67758;BMP180;54562;47.620;18.786;2023-03-21T01:26:27;98482.60;;;8.04
67758;BMP180;54562;47.620;18.786;2023-03-21T01:29:35;98483.80;;;8.20
67758;BMP180;54562;47.620;18.786;2023-03-21T01:32:45;98485.40;;;8.30
67758;BMP180;54562;47.620;18.786;2023-03-21T01:35:53;98480.80;;;8.30
67758;BMP180;54562;47.620;18.786;2023-03-21T01:39:19;98483.60;;;8.20
67758;BMP180;54562;47.620;18.786;2023-03-21T01:42:27;98484.80;;;8.20
67758;BMP180;54562;47.620;18.786;2023-03-21T01:46:21;98479.80;;;8.10
67758;BMP180;54562;47.620;18.786;2023-03-21T01:49:38;98479.60;;;8.08
67758;BMP180;54562;47.620;18.786;2023-03-21T01:52:52;98478.40;;;8.00
67758;BMP180;54562;47.620;18.786;2023-03-21T01:56:04;98477.80;;;8.00
67758;BMP180;54562;47.620;18.786;2023-03-21T01:59:21;98476.20;;;8.00
67758;BMP180;54562;47.620;18.786;2023-03-21T02:02:32;98476.00;;;8.00
67758;BMP180;54562;47.620;18.786;2023-03-21T02:05:53;98478.40;;;7.90
67758;BMP180;54562;47.620;18.786;2023-03-21T02:09:10;98475.20;;;7.90
67758;BMP180;54562;47.620;18.786;2023-03-21T02:12:21;98472.00;;;7.90
67758;BMP180;54562;47.620;18.786;2023-03-21T02:15:40;98474.20;;;7.90
67758;BMP180;54562;47.620;18.786;2023-03-21T02:18:57;98473.40;;;7.80
67758;BMP180;54562;47.620;18.786;2023-03-21T02:22:40;98476.40;;;7.80
67758;BMP180;54562;47.620;18.786;2023-03-21T02:26:34;98472.80;;;7.80
67758;BMP180;54562;47.620;18.786;2023-03-21T02:37:35;98478.80;;;7.90
67758;BMP180;54562;47.620;18.786;2023-03-21T02:41:00;98469.80;;;7.90
67758;BMP180;54562;47.620;18.786;2023-03-21T02:44:26;98474.20;;;7.80
67758;BMP180;54562;47.620;18.786;2023-03-21T02:47:43;98468.00;;;7.72
67758;BMP180;54562;47.620;18.786;2023-03-21T02:50:57;98467.20;;;7.70
67758;BMP180;54562;47.620;18.786;2023-03-21T02:54:13;98468.40;;;7.70
67758;BMP180;54562;47.620;18.786;2023-03-21T02:57:43;98464.00;;;7.70
67758;BMP180;54562;47.620;18.786;2023-03-21T03:01:00;98465.00;;;7.68
67758;BMP180;54562;47.620;18.786;2023-03-21T03:07:37;98464.20;;;7.60
67758;BMP180;54562;47.620;18.786;2023-03-21T03:11:09;98460.60;;;7.60
67758;BMP180;54562;47.620;18.786;2023-03-21T03:14:43;98465.60;;;7.60
67758;BMP180;54562;47.620;18.786;2023-03-21T03:21:39;98461.40;;;7.60
67758;BMP180;54562;47.620;18.786;2023-03-21T03:24:59;98462.60;;;7.60
67758;BMP180;54562;47.620;18.786;2023-03-21T03:28:37;98462.60;;;7.60
67758;BMP180;54562;47.620;18.786;2023-03-21T03:31:52;98455.60;;;7.60
67758;BMP180;54562;47.620;18.786;2023-03-21T03:35:19;98457.00;;;7.60
67758;BMP180;54562;47.620;18.786;2023-03-21T03:38:30;98460.80;;;7.58
67758;BMP180;54562;47.620;18.786;2023-03-21T03:41:46;98458.80;;;7.50
67758;BMP180;54562;47.620;18.786;2023-03-21T03:45:15;98457.80;;;7.50
67758;BMP180;54562;47.620;18.786;2023-03-21T03:48:28;98453.60;;;7.40
67758;BMP180;54562;47.620;18.786;2023-03-21T03:51:53;98451.60;;;7.40
67758;BMP180;54562;47.620;18.786;2023-03-21T03:55:03;98453.40;;;7.34
67758;BMP180;54562;47.620;18.786;2023-03-21T03:58:12;98451.60;;;7.30
67758;BMP180;54562;47.620;18.786;2023-03-21T04:01:35;98451.60;;;7.30
67758;BMP180;54562;47.620;18.786;2023-03-21T04:04:43;98450.20;;;7.32
67758;BMP180;54562;47.620;18.786;2023-03-21T04:07:52;98442.40;;;7.36
67758;BMP180;54562;47.620;18.786;2023-03-21T04:11:09;98442.60;;;7.40
67758;BMP180;54562;47.620;18.786;2023-03-21T04:14:19;98448.00;;;7.40
67758;BMP180;54562;47.620;18.786;2023-03-21T04:17:28;98449.00;;;7.40
67758;BMP180;54562;47.620;18.786;2023-03-21T04:20:37;98444.80;;;7.40
67758;BMP180;54562;47.620;18.786;2023-03-21T04:23:53;98450.20;;;7.50
67758;BMP180;54562;47.620;18.786;2023-03-21T04:27:10;98448.80;;;7.50
67758;BMP180;54562;47.620;18.786;2023-03-21T04:30:19;98444.20;;;7.50
67758;BMP180;54562;47.620;18.786;2023-03-21T04:33:31;98451.00;;;7.52
67758;BMP180;54562;47.620;18.786;2023-03-21T04:36:43;98450.40;;;7.50
67758;BMP180;54562;47.620;18.786;2023-03-21T04:39:53;98452.80;;;7.50
67758;BMP180;54562;47.620;18.786;2023-03-21T04:43:10;98458.40;;;7.50
67758;BMP180;54562;47.620;18.786;2023-03-21T04:46:27;98461.20;;;7.50
67758;BMP180;54562;47.620;18.786;2023-03-21T04:49:42;98463.40;;;7.46
67758;BMP180;54562;47.620;18.786;2023-03-21T04:52:59;98466.00;;;7.40
67758;BMP180;54562;47.620;18.786;2023-03-21T04:56:09;98462.20;;;7.40
67758;BMP180;54562;47.620;18.786;2023-03-21T04:59:18;98461.00;;;7.42
67758;BMP180;54562;47.620;18.786;2023-03-21T05:02:27;98465.20;;;7.50
67758;BMP180;54562;47.620;18.786;2023-03-21T05:05:36;98468.20;;;7.50
67758;BMP180;54562;47.620;18.786;2023-03-21T05:08:53;98471.00;;;7.50
67758;BMP180;54562;47.620;18.786;2023-03-21T05:12:13;98478.20;;;7.50
67758;BMP180;54562;47.620;18.786;2023-03-21T05:15:23;98483.00;;;7.60
67758;BMP180;54562;47.620;18.786;2023-03-21T05:18:30;98478.40;;;7.70
67758;BMP180;54562;47.620;18.786;2023-03-21T05:21:41;98477.40;;;7.80
67758;BMP180;54562;47.620;18.786;2023-03-21T05:24:49;98473.20;;;7.88
67758;BMP180;54562;47.620;18.786;2023-03-21T05:27:57;98478.20;;;7.90
67758;BMP180;54562;47.620;18.786;2023-03-21T05:31:09;98480.20;;;7.90
67758;BMP180;54562;47.620;18.786;2023-03-21T05:34:21;98480.80;;;7.90
67758;BMP180;54562;47.620;18.786;2023-03-21T05:37:38;98483.40;;;7.90
67758;BMP180;54562;47.620;18.786;2023-03-21T05:40:50;98489.20;;;7.90
67758;BMP180;54562;47.620;18.786;2023-03-21T05:43:58;98491.80;;;8.00
67758;BMP180;54562;47.620;18.786;2023-03-21T05:47:07;98495.40;;;8.00
67758;BMP180;54562;47.620;18.786;2023-03-21T05:50:15;98491.40;;;8.10
67758;BMP180;54562;47.620;18.786;2023-03-21T05:53:23;98496.60;;;8.16
67758;BMP180;54562;47.620;18.786;2023-03-21T05:56:31;98499.80;;;8.20
67758;BMP180;54562;47.620;18.786;2023-03-21T05:59:40;98500.20;;;8.30
67758;BMP180;54562;47.620;18.786;2023-03-21T06:02:49;98500.00;;;8.34
67758;BMP180;54562;47.620;18.786;2023-03-21T06:06:08;98496.20;;;8.40
67758;BMP180;54562;47.620;18.786;2023-03-21T06:09:25;98494.80;;;8.50
67758;BMP180;54562;47.620;18.786;2023-03-21T06:12:41;98486.60;;;8.60
67758;BMP180;54562;47.620;18.786;2023-03-21T06:15:51;98494.00;;;8.80
67758;BMP180;54562;47.620;18.786;2023-03-21T06:18:59;98491.00;;;8.90
67758;BMP180;54562;47.620;18.786;2023-03-21T06:22:08;98495.40;;;9.10
67758;BMP180;54562;47.620;18.786;2023-03-21T06:28:31;98488.20;;;9.50
67758;BMP180;54562;47.620;18.786;2023-03-21T06:31:40;98496.00;;;9.70
67758;BMP180;54562;47.620;18.786;2023-03-21T06:34:49;98497.80;;;9.82
67758;BMP180;54562;47.620;18.786;2023-03-21T06:37:57;98501.60;;;10.00
67758;BMP180;54562;47.620;18.786;2023-03-21T06:41:06;98503.40;;;10.24
67758;BMP180;54562;47.620;18.786;2023-03-21T06:44:23;98499.80;;;10.50
67758;BMP180;54562;47.620;18.786;2023-03-21T06:47:39;98499.80;;;10.72
67758;BMP180;54562;47.620;18.786;2023-03-21T06:50:58;98501.40;;;10.90
67758;BMP180;54562;47.620;18.786;2023-03-21T06:54:06;98501.60;;;11.10
67758;BMP180;54562;47.620;18.786;2023-03-21T06:57:15;98504.20;;;11.20
67758;BMP180;54562;47.620;18.786;2023-03-21T07:00:26;98504.00;;;11.30
67758;BMP180;54562;47.620;18.786;2023-03-21T07:03:36;98507.00;;;11.30
67758;BMP180;54562;47.620;18.786;2023-03-21T07:06:45;98507.60;;;11.40
67758;BMP180;54562;47.620;18.786;2023-03-21T07:10:01;98506.60;;;11.50
67758;BMP180;54562;47.620;18.786;2023-03-21T07:13:19;98508.20;;;11.60
67758;BMP180;54562;47.620;18.786;2023-03-21T07:16:36;98516.40;;;11.70
67758;BMP180;54562;47.620;18.786;2023-03-21T07:19:46;98516.60;;;11.80
67758;BMP180;54562;47.620;18.786;2023-03-21T07:23:02;98513.60;;;11.90
67758;BMP180;54562;47.620;18.786;2023-03-21T07:26:10;98516.20;;;11.90
67758;BMP180;54562;47.620;18.786;2023-03-21T07:29:28;98524.60;;;11.90
67758;BMP180;54562;47.620;18.786;2023-03-21T07:32:40;98524.40;;;12.00
67758;BMP180;54562;47.620;18.786;2023-03-21T07:35:57;98520.60;;;12.00
67758;BMP180;54562;47.620;18.786;2023-03-21T07:39:13;98519.80;;;12.00
67758;BMP180;54562;47.620;18.786;2023-03-21T07:42:29;98524.40;;;12.00
67758;BMP180;54562;47.620;18.786;2023-03-21T07:45:50;98520.00;;;11.90
67758;BMP180;54562;47.620;18.786;2023-03-21T07:48:58;98524.80;;;11.80
67758;BMP180;54562;47.620;18.786;2023-03-21T07:52:14;98524.80;;;11.80
67758;BMP180;54562;47.620;18.786;2023-03-21T07:55:30;98524.20;;;11.80
67758;BMP180;54562;47.620;18.786;2023-03-21T07:58:48;98530.20;;;11.90
67758;BMP180;54562;47.620;18.786;2023-03-21T08:01:56;98530.60;;;11.90
67758;BMP180;54562;47.620;18.786;2023-03-21T08:05:06;98535.00;;;12.00
67758;BMP180;54562;47.620;18.786;2023-03-21T08:08:17;98538.00;;;12.10
67758;BMP180;54562;47.620;18.786;2023-03-21T08:11:33;98533.00;;;12.12
67758;BMP180;54562;47.620;18.786;2023-03-21T08:14:49;98532.20;;;12.20
67758;BMP180;54562;47.620;18.786;2023-03-21T08:18:07;98536.40;;;12.40
67758;BMP180;54562;47.620;18.786;2023-03-21T08:21:15;98537.60;;;12.50
67758;BMP180;54562;47.620;18.786;2023-03-21T08:24:26;98539.80;;;12.60
67758;BMP180;54562;47.620;18.786;2023-03-21T08:27:43;98539.40;;;12.70
67758;BMP180;54562;47.620;18.786;2023-03-21T08:31:00;98534.00;;;12.70
67758;BMP180;54562;47.620;18.786;2023-03-21T08:34:22;98532.60;;;12.70
67758;BMP180;54562;47.620;18.786;2023-03-21T08:37:48;98534.80;;;12.80
67758;BMP180;54562;47.620;18.786;2023-03-21T08:41:06;98533.40;;;12.90
67758;BMP180;54562;47.620;18.786;2023-03-21T08:44:22;98535.60;;;12.80
67758;BMP180;54562;47.620;18.786;2023-03-21T08:47:44;98538.40;;;12.80
67758;BMP180;54562;47.620;18.786;2023-03-21T08:50:53;98543.60;;;12.70
67758;BMP180;54562;47.620;18.786;2023-03-21T08:54:21;98543.00;;;12.70
67758;BMP180;54562;47.620;18.786;2023-03-21T08:57:30;98543.60;;;12.60
67758;BMP180;54562;47.620;18.786;2023-03-21T09:00:39;98540.60;;;12.60
67758;BMP180;54562;47.620;18.786;2023-03-21T09:03:55;98547.00;;;12.70
67758;BMP180;54562;47.620;18.786;2023-03-21T09:10:34;98537.00;;;13.00
67758;BMP180;54562;47.620;18.786;2023-03-21T09:13:50;98536.80;;;13.20
67758;BMP180;54562;47.620;18.786;2023-03-21T09:17:16;98537.60;;;13.52
67758;BMP180;54562;47.620;18.786;2023-03-21T09:20:33;98534.40;;;13.80
67758;BMP180;54562;47.620;18.786;2023-03-21T09:23:52;98529.60;;;14.10
67758;BMP180;54562;47.620;18.786;2023-03-21T09:27:04;98531.20;;;14.32
67758;BMP180;54562;47.620;18.786;2023-03-21T09:30:21;98521.60;;;14.60
67758;BMP180;54562;47.620;18.786;2023-03-21T09:33:32;98524.20;;;14.80
67758;BMP180;54562;47.620;18.786;2023-03-21T09:36:49;98524.80;;;15.10
67758;BMP180;54562;47.620;18.786;2023-03-21T09:39:58;98520.60;;;15.32
67758;BMP180;54562;47.620;18.786;2023-03-21T09:43:38;98512.20;;;15.60
67758;BMP180;54562;47.620;18.786;2023-03-21T09:46:57;98515.60;;;15.62
67758;BMP180;54562;47.620;18.786;2023-03-21T09:53:31;98514.60;;;15.90
67758;BMP180;54562;47.620;18.786;2023-03-21T09:56:46;98517.60;;;16.10
67758;BMP180;54562;47.620;18.786;2023-03-21T10:00:11;98510.00;;;16.10
67758;BMP180;54562;47.620;18.786;2023-03-21T10:03:39;98507.80;;;16.30
67758;BMP180;54562;47.620;18.786;2023-03-21T10:06:57;98503.20;;;16.50
67758;BMP180;54562;47.620;18.786;2023-03-21T10:10:15;98507.40;;;16.60
67758;BMP180;54562;47.620;18.786;2023-03-21T10:13:38;98505.00;;;16.80
67758;BMP180;54562;47.620;18.786;2023-03-21T10:16:50;98498.60;;;16.90
67758;BMP180;54562;47.620;18.786;2023-03-21T10:20:15;98495.60;;;17.10
67758;BMP180;54562;47.620;18.786;2023-03-21T10:23:28;98497.20;;;17.20
67758;BMP180;54562;47.620;18.786;2023-03-21T10:26:45;98498.80;;;17.40
67758;BMP180;54562;47.620;18.786;2023-03-21T10:30:02;98497.40;;;17.60
67758;BMP180;54562;47.620;18.786;2023-03-21T10:33:17;98491.00;;;17.80
67758;BMP180;54562;47.620;18.786;2023-03-21T10:36:30;98492.80;;;17.90
67758;BMP180;54562;47.620;18.786;2023-03-21T10:39:41;98491.60;;;18.08
67758;BMP180;54562;47.620;18.786;2023-03-21T10:42:52;98496.60;;;18.20
67758;BMP180;54562;47.620;18.786;2023-03-21T10:46:15;98491.60;;;18.30
67758;BMP180;54562;47.620;18.786;2023-03-21T10:49:36;98487.60;;;18.40
67758;BMP180;54562;47.620;18.786;2023-03-21T10:53:19;98484.60;;;18.60
67758;BMP180;54562;47.620;18.786;2023-03-21T10:56:44;98479.00;;;18.70
67758;BMP180;54562;47.620;18.786;2023-03-21T11:00:03;98471.80;;;18.82
67758;BMP180;54562;47.620;18.786;2023-03-21T11:03:29;98474.20;;;18.90
67758;BMP180;54562;47.620;18.786;2023-03-21T11:06:41;98467.00;;;19.00
67758;BMP180;54562;47.620;18.786;2023-03-21T11:09:57;98460.00;;;19.10
67758;BMP180;54562;47.620;18.786;2023-03-21T11:13:18;98467.80;;;19.20
67758;BMP180;54562;47.620;18.786;2023-03-21T11:16:39;98459.40;;;19.20
67758;BMP180;54562;47.620;18.786;2023-03-21T11:19:52;98457.80;;;19.30
67758;BMP180;54562;47.620;18.786;2023-03-21T11:23:03;98449.20;;;19.30
67758;BMP180;54562;47.620;18.786;2023-03-21T11:26:26;98442.40;;;19.44
67758;BMP180;54562;47.620;18.786;2023-03-21T11:29:39;98440.60;;;19.60
67758;BMP180;54562;47.620;18.786;2023-03-21T11:32:58;98433.40;;;19.70
67758;BMP180;54562;47.620;18.786;2023-03-21T11:36:32;98420.00;;;19.80
67758;BMP180;54562;47.620;18.786;2023-03-21T11:39:46;98413.80;;;20.00
67758;BMP180;54562;47.620;18.786;2023-03-21T11:42:57;98410.20;;;20.12
67758;BMP180;54562;47.620;18.786;2023-03-21T11:46:13;98402.20;;;20.18
67758;BMP180;54562;47.620;18.786;2023-03-21T11:49:31;98407.80;;;19.70
67758;BMP180;54562;47.620;18.786;2023-03-21T11:53:01;98405.00;;;19.20
67758;BMP180;54562;47.620;18.786;2023-03-21T11:56:23;98401.40;;;19.00
67758;BMP180;54562;47.620;18.786;2023-03-21T11:59:49;98404.60;;;18.80
67758;BMP180;54562;47.620;18.786;2023-03-21T12:03:56;98403.20;;;18.60
67758;BMP180;54562;47.620;18.786;2023-03-21T12:07:26;98403.80;;;18.10
67758;BMP180;54562;47.620;18.786;2023-03-21T12:10:54;98409.20;;;17.50
67758;BMP180;54562;47.620;18.786;2023-03-21T12:14:18;98405.20;;;17.18
67758;BMP180;54562;47.620;18.786;2023-03-21T12:17:52;98395.20;;;16.80
67758;BMP180;54562;47.620;18.786;2023-03-21T12:21:08;98396.20;;;16.60
67758;BMP180;54562;47.620;18.786;2023-03-21T12:24:22;98390.40;;;17.00
67758;BMP180;54562;47.620;18.786;2023-03-21T12:27:42;98386.00;;;17.62
67758;BMP180;54562;47.620;18.786;2023-03-21T12:31:08;98379.00;;;17.98
67758;BMP180;54562;47.620;18.786;2023-03-21T12:34:49;98385.00;;;17.80
67758;BMP180;54562;47.620;18.786;2023-03-21T12:38:13;98381.60;;;17.40
67758;BMP180;54562;47.620;18.786;2023-03-21T12:41:32;98374.60;;;17.10
67758;BMP180;54562;47.620;18.786;2023-03-21T12:44:44;98366.00;;;17.56
67758;BMP180;54562;47.620;18.786;2023-03-21T12:48:20;98356.40;;;18.22
67758;BMP180;54562;47.620;18.786;2023-03-21T12:51:42;98353.40;;;18.70
67758;BMP180;54562;47.620;18.786;2023-03-21T12:54:55;98353.00;;;19.00
67758;BMP180;54562;47.620;18.786;2023-03-21T12:58:17;98355.80;;;19.10
67758;BMP180;54562;47.620;18.786;2023-03-21T13:01:29;98355.00;;;19.50
67758;BMP180;54562;47.620;18.786;2023-03-21T13:04:46;98356.00;;;19.34
67758;BMP180;54562;47.620;18.786;2023-03-21T13:08:13;98357.60;;;18.70
67758;BMP180;54562;47.620;18.786;2023-03-21T13:11:26;98348.80;;;18.18
67758;BMP180;54562;47.620;18.786;2023-03-21T13:14:58;98349.60;;;17.78
67758;BMP180;54562;47.620;18.786;2023-03-21T13:18:27;98341.40;;;17.40
67758;BMP180;54562;47.620;18.786;2023-03-21T13:21:54;98339.40;;;17.00
67758;BMP180;54562;47.620;18.786;2023-03-21T13:25:14;98343.00;;;17.00
67758;BMP180;54562;47.620;18.786;2023-03-21T13:28:28;98335.20;;;17.20
67758;BMP180;54562;47.620;18.786;2023-03-21T13:31:36;98338.40;;;17.64
67758;BMP180;54562;47.620;18.786;2023-03-21T13:35:18;98328.20;;;18.10
67758;BMP180;54562;47.620;18.786;2023-03-21T13:38:35;98333.40;;;18.60
67758;BMP180;54562;47.620;18.786;2023-03-21T13:41:48;98328.00;;;19.00
67758;BMP180;54562;47.620;18.786;2023-03-21T13:45:04;98335.60;;;19.22
67758;BMP180;54562;47.620;18.786;2023-03-21T13:48:30;98329.40;;;19.50
67758;BMP180;54562;47.620;18.786;2023-03-21T13:51:49;98336.20;;;19.60
67758;BMP180;54562;47.620;18.786;2023-03-21T13:54:59;98327.80;;;19.50
67758;BMP180;54562;47.620;18.786;2023-03-21T13:58:33;98329.40;;;19.12
67758;BMP180;54562;47.620;18.786;2023-03-21T14:01:58;98324.20;;;18.68
67758;BMP180;54562;47.620;18.786;2023-03-21T14:05:21;98324.20;;;18.34
67758;BMP180;54562;47.620;18.786;2023-03-21T14:08:35;98324.20;;;18.00
67758;BMP180;54562;47.620;18.786;2023-03-21T14:11:47;98316.20;;;17.52
67758;BMP180;54562;47.620;18.786;2023-03-21T14:15:10;98313.00;;;17.20
67758;BMP180;54562;47.620;18.786;2023-03-21T14:18:25;98310.80;;;17.30
67758;BMP180;54562;47.620;18.786;2023-03-21T14:21:53;98310.20;;;17.10
67758;BMP180;54562;47.620;18.786;2023-03-21T14:25:05;98301.60;;;16.90
67758;BMP180;54562;47.620;18.786;2023-03-21T14:28:21;98302.00;;;16.60
67758;BMP180;54562;47.620;18.786;2023-03-21T14:31:29;98291.80;;;16.70
67758;BMP180;54562;47.620;18.786;2023-03-21T14:34:39;98295.40;;;17.10
67758;BMP180;54562;47.620;18.786;2023-03-21T14:37:57;98289.80;;;17.50
67758;BMP180;54562;47.620;18.786;2023-03-21T14:41:20;98293.40;;;17.40
67758;BMP180;54562;47.620;18.786;2023-03-21T14:44:37;98292.40;;;17.20
67758;BMP180;54562;47.620;18.786;2023-03-21T14:48:13;98290.80;;;16.90
67758;BMP180;54562;47.620;18.786;2023-03-21T14:51:30;98292.20;;;16.60
67758;BMP180;54562;47.620;18.786;2023-03-21T14:54:43;98291.60;;;16.30
67758;BMP180;54562;47.620;18.786;2023-03-21T14:57:52;98292.20;;;16.20
67758;BMP180;54562;47.620;18.786;2023-03-21T15:01:06;98290.40;;;16.00
67758;BMP180;54562;47.620;18.786;2023-03-21T15:04:28;98289.00;;;15.88
67758;BMP180;54562;47.620;18.786;2023-03-21T15:07:38;98280.20;;;15.70
67758;BMP180;54562;47.620;18.786;2023-03-21T15:10:57;98272.60;;;15.56
67758;BMP180;54562;47.620;18.786;2023-03-21T15:14:28;98277.40;;;15.40
67758;BMP180;54562;47.620;18.786;2023-03-21T15:17:46;98278.80;;;15.22
67758;BMP180;54562;47.620;18.786;2023-03-21T15:21:08;98271.40;;;15.10
67758;BMP180;54562;47.620;18.786;2023-03-21T15:24:24;98276.00;;;15.00
67758;BMP180;54562;47.620;18.786;2023-03-21T15:27:38;98273.40;;;15.00
67758;BMP180;54562;47.620;18.786;2023-03-21T15:30:52;98274.80;;;15.00
67758;BMP180;54562;47.620;18.786;2023-03-21T15:34:03;98274.00;;;14.90
67758;BMP180;54562;47.620;18.786;2023-03-21T15:37:26;98271.80;;;14.88
67758;BMP180;54562;47.620;18.786;2023-03-21T15:40:37;98267.40;;;14.88
67758;BMP180;54562;47.620;18.786;2023-03-21T15:43:47;98266.40;;;14.94
67758;BMP180;54562;47.620;18.786;2023-03-21T15:46:55;98262.40;;;15.02
67758;BMP180;54562;47.620;18.786;2023-03-21T15:50:17;98260.60;;;15.10
67758;BMP180;54562;47.620;18.786;2023-03-21T15:53:38;98262.60;;;15.14
67758;BMP180;54562;47.620;18.786;2023-03-21T15:56:53;98264.00;;;15.10
67758;BMP180;54562;47.620;18.786;2023-03-21T16:00:13;98266.80;;;15.10
67758;BMP180;54562;47.620;18.786;2023-03-21T16:03:37;98264.80;;;15.10
67758;BMP180;54562;47.620;18.786;2023-03-21T16:06:58;98267.20;;;15.00
67758;BMP180;54562;47.620;18.786;2023-03-21T16:13:30;98269.40;;;14.90
67758;BMP180;54562;47.620;18.786;2023-03-21T16:16:39;98267.40;;;14.80
67758;BMP180;54562;47.620;18.786;2023-03-21T16:19:58;98270.20;;;14.70
67758;BMP180;54562;47.620;18.786;2023-03-21T16:23:15;98272.60;;;14.60
67758;BMP180;54562;47.620;18.786;2023-03-21T16:26:28;98273.60;;;14.50
67758;BMP180;54562;47.620;18.786;2023-03-21T16:29:37;98276.40;;;14.40
67758;BMP180;54562;47.620;18.786;2023-03-21T16:32:54;98278.40;;;14.30
67758;BMP180;54562;47.620;18.786;2023-03-21T16:36:03;98281.20;;;14.16
67758;BMP180;54562;47.620;18.786;2023-03-21T16:39:21;98281.80;;;14.00
67758;BMP180;54562;47.620;18.786;2023-03-21T16:42:41;98287.60;;;13.90
67758;BMP180;54562;47.620;18.786;2023-03-21T16:45:49;98293.20;;;13.80
67758;BMP180;54562;47.620;18.786;2023-03-21T16:48:58;98298.00;;;13.60
67758;BMP180;54562;47.620;18.786;2023-03-21T16:52:12;98296.00;;;13.50
67758;BMP180;54562;47.620;18.786;2023-03-21T16:55:20;98299.40;;;13.40
67758;BMP180;54562;47.620;18.786;2023-03-21T16:58:29;98302.00;;;13.28
67758;BMP180;54562;47.620;18.786;2023-03-21T17:01:46;98298.60;;;13.10
67758;BMP180;54562;47.620;18.786;2023-03-21T17:04:54;98303.60;;;12.90
67758;BMP180;54562;47.620;18.786;2023-03-21T17:08:17;98312.00;;;12.80
67758;BMP180;54562;47.620;18.786;2023-03-21T17:11:35;98312.00;;;12.70
67758;BMP180;54562;47.620;18.786;2023-03-21T17:14:47;98313.80;;;12.50
67758;BMP180;54562;47.620;18.786;2023-03-21T17:18:05;98316.40;;;12.40
67758;BMP180;54562;47.620;18.786;2023-03-21T17:21:17;98312.80;;;12.26
67758;BMP180;54562;47.620;18.786;2023-03-21T17:24:34;98315.00;;;12.10
67758;BMP180;54562;47.620;18.786;2023-03-21T17:27:52;98318.00;;;12.00
67758;BMP180;54562;47.620;18.786;2023-03-21T17:31:00;98321.00;;;11.90
67758;BMP180;54562;47.620;18.786;2023-03-21T17:34:18;98322.20;;;11.70
67758;BMP180;54562;47.620;18.786;2023-03-21T17:37:25;98324.80;;;11.60
67758;BMP180;54562;47.620;18.786;2023-03-21T17:40:42;98328.40;;;11.50
67758;BMP180;54562;47.620;18.786;2023-03-21T17:43:58;98334.00;;;11.40
67758;BMP180;54562;47.620;18.786;2023-03-21T17:47:14;98333.60;;;11.30
67758;BMP180;54562;47.620;18.786;2023-03-21T17:50:30;98332.20;;;11.16
67758;BMP180;54562;47.620;18.786;2023-03-21T17:53:40;98334.60;;;11.06
67758;BMP180;54562;47.620;18.786;2023-03-21T17:56:48;98330.80;;;11.00
67758;BMP180;54562;47.620;18.786;2023-03-21T17:59:57;98333.80;;;10.90
67758;BMP180;54562;47.620;18.786;2023-03-21T18:03:06;98338.40;;;10.80
67758;BMP180;54562;47.620;18.786;2023-03-21T18:06:21;98338.60;;;10.70
67758;BMP180;54562;47.620;18.786;2023-03-21T18:09:30;98338.40;;;10.60
67758;BMP180;54562;47.620;18.786;2023-03-21T18:12:38;98341.00;;;10.50
67758;BMP180;54562;47.620;18.786;2023-03-21T18:15:48;98343.00;;;10.50
67758;BMP180;54562;47.620;18.786;2023-03-21T18:18:56;98348.60;;;10.40
67758;BMP180;54562;47.620;18.786;2023-03-21T18:22:13;98343.00;;;10.32
67758;BMP180;54562;47.620;18.786;2023-03-21T18:25:23;98339.40;;;10.20
67758;BMP180;54562;47.620;18.786;2023-03-21T18:28:34;98344.40;;;10.10
67758;BMP180;54562;47.620;18.786;2023-03-21T18:31:45;98350.00;;;10.02
67758;BMP180;54562;47.620;18.786;2023-03-21T18:35:16;98357.20;;;10.00
67758;BMP180;54562;47.620;18.786;2023-03-21T18:38:25;98360.00;;;9.90
67758;BMP180;54562;47.620;18.786;2023-03-21T18:41:35;98360.80;;;9.90
67758;BMP180;54562;47.620;18.786;2023-03-21T18:44:52;98357.40;;;9.80
67758;BMP180;54562;47.620;18.786;2023-03-21T18:48:10;98360.20;;;9.80
67758;BMP180;54562;47.620;18.786;2023-03-21T18:51:19;98365.00;;;9.70
67758;BMP180;54562;47.620;18.786;2023-03-21T18:54:37;98363.20;;;9.64
67758;BMP180;54562;47.620;18.786;2023-03-21T18:57:45;98365.80;;;9.54
67758;BMP180;54562;47.620;18.786;2023-03-21T19:01:02;98359.80;;;9.40
67758;BMP180;54562;47.620;18.786;2023-03-21T19:04:19;98363.20;;;9.40
67758;BMP180;54562;47.620;18.786;2023-03-21T19:07:37;98366.00;;;9.30
67758;BMP180;54562;47.620;18.786;2023-03-21T19:10:44;98364.00;;;9.20
67758;BMP180;54562;47.620;18.786;2023-03-21T19:13:52;98368.60;;;9.20